Time;durP1;ratioP1;P1;durP2;ratioP2;P2;SDS_P1;SDS_P2;PMS_P1;PMS_P2;Temp;Humidity;BMP_temperature;BMP_pressure;BME280_temperature;BME280_humidity;BME280_pressure;Samples;Min_cycle;Max_cycle;Signal;HPM_P1;HPM_P2
2022/06/04 02:35:11;;;;;;;16.30;5.18;;;21.00;99.90;;;;;;4824666;29;20057;-82
2022/06/04 03:40:31;;;;;;;14.63;5.95;;;20.30;99.90;;;;;;4734715;30;20128;-84
2022/06/04 03:42:57;;;;;;;18.70;5.93;;;20.30;99.90;;;;;;4734452;30;20106;-84
2022/06/04 03:45:26;;;;;;;15.50;4.88;;;20.30;99.90;;;;;;4783490;29;20056;-83
2022/06/04 03:47:54;;;;;;;16.10;5.45;;;20.30;99.90;;;;;;4899591;29;20111;-83
2022/06/04 03:50:20;;;;;;;21.00;6.50;;;20.40;99.90;;;;;;4899463;29;20075;-85
2022/06/04 03:52:48;;;;;;;14.70;5.78;;;20.40;99.90;;;;;;4899771;29;20029;-83
2022/06/04 03:55:18;;;;;;;18.50;5.60;;;20.50;99.90;;;;;;4899593;29;20036;-85
2022/06/04 03:57:50;;;;;;;17.48;5.95;;;20.50;99.90;;;;;;4899392;29;20397;-85
2022/06/04 04:00:16;;;;;;;15.98;5.75;;;20.60;99.90;;;;;;4898582;29;20453;-82
2022/06/04 04:02:44;;;;;;;10.90;5.38;;;20.60;99.90;;;;;;4900021;29;20525;-84
2022/06/04 04:05:13;;;;;;;17.67;6.15;;;20.60;99.90;;;;;;4900227;29;20482;-84
2022/06/04 04:07:40;;;;;;;17.73;5.53;;;20.80;99.90;;;;;;4899556;29;20025;-82
2022/06/04 04:10:08;;;;;;;13.65;5.13;;;20.90;99.90;;;;;;4899591;29;20041;-83
2022/06/04 04:12:34;;;;;;;20.95;5.80;;;20.90;99.90;;;;;;4899634;29;20043;-82
2022/06/04 04:15:03;;;;;;;15.75;6.45;;;21.10;99.90;;;;;;4899355;29;20092;-84
2022/06/04 04:17:37;;;;;;;16.35;5.47;;;21.10;99.90;;;;;;4899441;29;20037;-83
2022/06/04 04:20:13;;;;;;;16.08;4.85;;;21.30;99.90;;;;;;4899306;29;20044;-83
2022/06/04 04:22:48;;;;;;;17.35;5.85;;;21.40;99.90;;;;;;4899235;29;20123;-84
2022/06/04 04:25:29;;;;;;;15.07;5.43;;;21.60;99.90;;;;;;4899039;29;20063;-82
2022/06/04 04:27:59;;;;;;;17.48;4.93;;;21.80;99.90;;;;;;4880470;29;20128;-84
2022/06/04 04:30:31;;;;;;;12.60;5.45;;;22.00;99.90;;;;;;4880306;29;20041;-82
2022/06/04 04:32:57;;;;;;;12.93;5.07;;;22.20;99.90;;;;;;4896870;29;20037;-86
2022/06/04 04:35:26;;;;;;;14.40;5.25;;;22.30;99.90;;;;;;4899366;29;20079;-84
2022/06/04 04:37:53;;;;;;;12.75;5.03;;;22.40;99.90;;;;;;4898553;29;20068;-83
2022/06/04 04:40:23;;;;;;;17.30;5.22;;;22.60;99.90;;;;;;4898786;29;20122;-84
2022/06/04 04:42:49;;;;;;;18.55;5.35;;;22.90;99.90;;;;;;4899072;29;20032;-83
2022/06/04 04:45:17;;;;;;;13.43;4.55;;;23.20;99.90;;;;;;4898468;29;20037;-83
2022/06/04 04:47:46;;;;;;;18.17;4.47;;;23.60;99.90;;;;;;4897998;29;20107;-85
2022/06/04 04:50:17;;;;;;;14.57;4.43;;;24.00;99.90;;;;;;4897725;29;20037;-85
2022/06/04 04:52:43;;;;;;;11.32;3.85;;;24.40;99.90;;;;;;4879419;29;20033;-85
2022/06/04 04:55:11;;;;;;;14.32;4.43;;;24.80;99.90;;;;;;4879848;29;20037;-84
2022/06/04 04:57:37;;;;;;;13.30;4.78;;;25.30;99.90;;;;;;4880027;29;20037;-85
2022/06/04 05:00:07;;;;;;;18.88;4.22;;;25.70;99.90;;;;;;4880084;29;20056;-84
2022/06/04 05:02:34;;;;;;;16.17;4.13;;;26.10;99.90;;;;;;4879906;29;20514;-83
2022/06/04 05:05:00;;;;;;;9.57;3.70;;;26.50;99.90;;;;;;4878473;29;20033;-85
2022/06/04 05:07:28;;;;;;;9.60;3.63;;;27.00;99.90;;;;;;4883902;29;20047;-85
2022/06/04 05:09:57;;;;;;;7.45;3.65;;;27.40;99.90;;;;;;4897787;29;20033;-83
2022/06/04 05:12:23;;;;;;;14.63;3.63;;;27.60;99.90;;;;;;4898325;29;20035;-85
2022/06/04 05:14:49;;;;;;;16.20;4.10;;;27.90;99.90;;;;;;4898310;29;20050;-85
2022/06/04 05:17:15;;;;;;;14.13;2.92;;;28.10;99.90;;;;;;4898030;29;20595;-85
2022/06/04 05:19:41;;;;;;;12.68;3.92;;;28.40;99.90;;;;;;4898376;29;20036;-83
2022/06/04 05:22:07;;;;;;;16.13;3.97;;;28.80;99.90;;;;;;4898232;29;20060;-84
2022/06/04 05:24:35;;;;;;;8.63;3.95;;;29.00;99.90;;;;;;4897855;29;20442;-84
2022/06/04 05:27:04;;;;;;;14.68;3.17;;;29.10;99.90;;;;;;4923243;29;20050;-84
2022/06/04 05:29:34;;;;;;;12.02;3.78;;;29.20;99.90;;;;;;4935812;29;20083;-84
2022/06/04 05:32:02;;;;;;;12.77;3.67;;;29.40;99.90;;;;;;4935750;29;20115;-84
2022/06/04 05:34:28;;;;;;;10.00;3.63;;;29.80;99.90;;;;;;4936088;29;20319;-84
2022/06/04 05:36:55;;;;;;;11.30;3.30;;;30.20;99.90;;;;;;4936229;29;20071;-84
2022/06/04 05:39:24;;;;;;;10.93;3.10;;;30.60;99.90;;;;;;4935656;29;20064;-85
2022/06/04 05:41:50;;;;;;;11.70;4.25;;;30.80;99.90;;;;;;4935623;29;20095;-84
2022/06/04 05:44:17;;;;;;;14.73;3.25;;;31.00;99.90;;;;;;4918292;29;20135;-84
2022/06/04 05:46:44;;;;;;;22.70;4.05;;;31.30;99.90;;;;;;4936137;29;20437;-84
2022/06/04 05:49:12;;;;;;;8.77;3.03;;;31.40;99.90;;;;;;4935894;29;20036;-84
2022/06/04 05:51:40;;;;;;;12.48;3.30;;;31.60;99.90;;;;;;4935824;29;20042;-84
2022/06/04 05:54:07;;;;;;;7.65;2.72;;;31.80;99.90;;;;;;4935491;29;20089;-84
2022/06/04 05:56:38;;;;;;;14.48;3.38;;;31.70;99.90;;;;;;4935483;29;20099;-84
2022/06/04 05:59:07;;;;;;;9.55;2.53;;;31.90;99.90;;;;;;4935515;29;20040;-85
2022/06/04 06:01:34;;;;;;;15.48;3.25;;;32.20;99.90;;;;;;4935693;29;20048;-82
2022/06/04 06:04:01;;;;;;;18.73;3.97;;;32.50;99.90;;;;;;4937047;29;20127;-85
2022/06/04 06:06:30;;;;;;;12.63;2.92;;;32.80;99.90;;;;;;4939418;29;20039;-84
2022/06/04 06:08:57;;;;;;;18.42;2.75;;;33.00;99.90;;;;;;4939160;29;20063;-83
2022/06/04 06:11:25;;;;;;;10.52;2.40;;;33.10;99.90;;;;;;4939198;29;20472;-85
2022/06/04 06:13:52;;;;;;;15.95;4.03;;;33.50;99.90;;;;;;4939424;29;20027;-85
2022/06/04 06:16:21;;;;;;;16.85;2.92;;;33.70;99.90;;;;;;4939696;29;20111;-82
2022/06/04 06:18:47;;;;;;;16.42;2.60;;;34.10;99.90;;;;;;4941410;29;20123;-92
2022/06/04 06:21:16;;;;;;;15.23;3.40;;;34.50;99.90;;;;;;4940687;29;20031;-84
2022/06/04 06:23:43;;;;;;;7.63;2.67;;;34.80;99.90;;;;;;4939461;29;20082;-87
2022/06/04 06:26:24;;;;;;;13.05;4.20;;;35.40;99.70;;;;;;4938968;29;20050;-84
2022/06/04 06:28:51;;;;;;;10.38;2.72;;;35.70;98.80;;;;;;4939461;29;20036;-87
2022/06/04 06:31:22;;;;;;;13.57;2.85;;;36.10;97.60;;;;;;4939371;29;20078;-85
2022/06/04 06:33:48;;;;;;;9.27;2.75;;;36.40;96.70;;;;;;4939335;29;20035;-86
2022/06/04 06:36:17;;;;;;;15.05;3.25;;;36.80;96.00;;;;;;4932032;29;20046;-86
2022/06/04 06:38:45;;;;;;;18.38;3.63;;;36.70;96.00;;;;;;4919989;29;20099;-83
2022/06/04 06:41:13;;;;;;;22.48;3.65;;;36.80;95.60;;;;;;4920271;29;20088;-85
2022/06/04 06:43:41;;;;;;;17.98;3.85;;;36.80;95.10;;;;;;4919682;29;20044;-85
2022/06/04 06:46:15;;;;;;;22.70;3.63;;;36.90;95.00;;;;;;4919522;29;20478;-85
2022/06/04 06:48:45;;;;;;;22.60;3.97;;;36.40;95.00;;;;;;4919437;29;20044;-85
2022/06/04 06:51:20;;;;;;;19.70;3.53;;;36.00;95.50;;;;;;4919566;29;20051;-83
2022/06/04 06:53:46;;;;;;;19.73;3.63;;;35.60;95.90;;;;;;4927012;29;20038;-82
2022/06/04 06:56:18;;;;;;;17.85;4.50;;;35.30;96.20;;;;;;4926431;29;20040;-85
2022/06/04 06:58:45;;;;;;;21.20;5.10;;;34.80;96.70;;;;;;4927135;29;20086;-84
2022/06/04 07:01:12;;;;;;;16.35;4.35;;;34.60;97.30;;;;;;4923368;29;20020;-86
2022/06/04 07:03:39;;;;;;;13.85;3.88;;;34.40;97.60;;;;;;4929869;29;20036;-82
2022/06/04 07:06:07;;;;;;;16.38;4.53;;;34.20;97.90;;;;;;4924441;29;20032;-83
2022/06/04 07:08:34;;;;;;;27.30;4.93;;;34.10;97.90;;;;;;4922590;29;20038;-83
2022/06/04 07:11:00;;;;;;;23.35;5.20;;;33.90;98.50;;;;;;4927569;29;20155;-85
2022/06/04 07:13:26;;;;;;;17.63;5.07;;;33.80;98.20;;;;;;4930471;29;20489;-82
2022/06/04 07:15:54;;;;;;;24.52;5.00;;;33.60;98.30;;;;;;4928436;29;20032;-82
2022/06/04 07:18:20;;;;;;;12.13;4.28;;;33.50;98.80;;;;;;4931830;29;20114;-82
2022/06/04 07:20:46;;;;;;;14.30;4.75;;;33.40;98.80;;;;;;4937636;29;20074;-82
2022/06/04 07:23:12;;;;;;;13.07;4.18;;;33.20;98.70;;;;;;4926544;29;20104;-82
2022/06/04 07:25:44;;;;;;;12.18;3.90;;;33.10;99.30;;;;;;4925260;29;20036;-84
2022/06/04 07:28:11;;;;;;;21.65;4.57;;;33.00;99.30;;;;;;4927952;29;20393;-82
2022/06/04 07:30:38;;;;;;;13.07;4.47;;;33.10;99.10;;;;;;4929650;29;20090;-83
2022/06/04 07:33:04;;;;;;;15.60;4.47;;;33.00;99.30;;;;;;4937534;29;20050;-82
2022/06/04 07:35:30;;;;;;;15.85;4.78;;;33.00;99.50;;;;;;4934811;29;20409;-83
2022/06/04 07:37:56;;;;;;;15.10;4.10;;;33.10;99.80;;;;;;4918596;29;20120;-84
2022/06/04 07:40:22;;;;;;;10.48;4.68;;;32.90;99.60;;;;;;4918950;29;20043;-83
2022/06/04 07:42:48;;;;;;;13.57;4.70;;;33.10;99.70;;;;;;4931623;29;20035;-82
2022/06/04 07:45:14;;;;;;;14.30;4.22;;;33.00;99.50;;;;;;4928802;29;20032;-84
2022/06/04 07:47:41;;;;;;;9.07;4.25;;;32.70;99.60;;;;;;4934287;29;20028;-83
2022/06/04 07:50:10;;;;;;;15.93;4.15;;;32.40;99.50;;;;;;4932170;29;20472;-84
2022/06/04 07:52:37;;;;;;;20.85;4.95;;;32.50;98.80;;;;;;4928084;29;20043;-82
2022/06/04 07:55:06;;;;;;;10.73;4.60;;;32.40;99.30;;;;;;4927207;29;20032;-82
2022/06/04 07:57:36;;;;;;;11.27;4.68;;;32.20;99.80;;;;;;4927541;29;20059;-85
2022/06/04 08:00:03;;;;;;;22.30;4.07;;;32.20;99.30;;;;;;4925013;29;20515;-83
2022/06/04 08:02:28;;;;;;;14.82;4.10;;;32.40;99.40;;;;;;4924195;29;20043;-82
2022/06/04 08:04:54;;;;;;;10.45;3.67;;;32.40;99.70;;;;;;4931462;29;20473;-83
2022/06/04 08:07:24;;;;;;;20.42;3.67;;;32.70;98.90;;;;;;4926681;29;20111;-82
2022/06/04 08:09:53;;;;;;;19.73;4.45;;;32.60;98.60;;;;;;4930104;29;20032;-82
2022/06/04 08:12:19;;;;;;;9.70;4.47;;;32.60;98.70;;;;;;4925424;29;20080;-84
2022/06/04 08:14:48;;;;;;;16.92;4.15;;;32.60;98.80;;;;;;4928780;29;20024;-83
2022/06/04 08:17:14;;;;;;;18.80;4.13;;;32.50;99.20;;;;;;4929647;29;20048;-81
2022/06/04 08:19:40;;;;;;;12.80;4.40;;;32.30;99.70;;;;;;4927740;29;20040;-83
2022/06/04 08:22:07;;;;;;;17.83;5.68;;;32.20;99.60;;;;;;4926947;29;20030;-82
2022/06/04 08:24:34;;;;;;;11.52;4.97;;;32.30;99.50;;;;;;4927796;29;20512;-83
2022/06/04 08:27:02;;;;;;;12.30;4.90;;;32.20;99.20;;;;;;4926366;29;20083;-83
2022/06/04 08:29:31;;;;;;;17.90;4.72;;;32.20;99.20;;;;;;4927249;29;20036;-82
2022/06/04 08:31:59;;;;;;;13.70;4.40;;;32.10;99.30;;;;;;4926030;29;20374;-83
2022/06/04 08:34:24;;;;;;;15.40;4.20;;;31.90;99.50;;;;;;4927395;29;20036;-82
2022/06/04 08:36:50;;;;;;;12.65;4.30;;;32.00;99.20;;;;;;4918506;29;20042;-83
2022/06/04 08:39:16;;;;;;;16.63;4.15;;;31.90;99.10;;;;;;4928107;29;20091;-83
2022/06/04 08:42:10;;;;;;;13.45;4.43;;;31.70;99.40;;;;;;4928291;29;20426;-83
2022/06/04 08:44:42;;;;;;;11.27;4.65;;;31.80;99.10;;;;;;4924695;29;20040;-82
2022/06/04 08:47:18;;;;;;;15.40;4.57;;;31.80;98.90;;;;;;4923090;29;20024;-83
2022/06/04 08:49:50;;;;;;;18.83;4.68;;;31.90;99.10;;;;;;4918364;29;20363;-83
2022/06/04 08:52:33;;;;;;;18.23;4.20;;;31.80;99.10;;;;;;4917317;29;20068;-83
2022/06/04 08:58:14;;;;;;;19.30;5.03;;;31.80;99.00;;;;;;4920103;29;20091;-83
2022/06/04 09:00:56;;;;;;;11.77;4.53;;;32.00;98.80;;;;;;4896490;29;20120;-83
2022/06/04 09:03:46;;;;;;;15.18;4.55;;;32.30;98.40;;;;;;4930697;29;21280;-83
2022/06/04 09:06:36;;;;;;;9.68;3.58;;;32.60;98.10;;;;;;4924830;29;20040;-83
2022/06/04 09:09:21;;;;;;;11.38;3.75;;;32.70;97.60;;;;;;4917041;29;20389;-83
2022/06/04 09:12:06;;;;;;;13.73;3.03;;;32.60;97.50;;;;;;4917000;29;20063;-82
2022/06/04 09:14:45;;;;;;;12.60;3.60;;;32.40;98.00;;;;;;4916838;29;20059;-83
2022/06/04 09:17:19;;;;;;;14.05;3.55;;;32.40;97.90;;;;;;4916855;29;20031;-82
2022/06/04 09:19:52;;;;;;;19.33;4.45;;;32.50;98.10;;;;;;4917175;29;20401;-82
2022/06/04 09:22:33;;;;;;;19.88;4.88;;;32.40;97.70;;;;;;4916935;29;20353;-82
2022/06/04 09:24:58;;;;;;;16.30;4.25;;;32.10;98.00;;;;;;4916933;29;20184;-83
2022/06/04 09:27:34;;;;;;;11.15;3.50;;;32.00;98.40;;;;;;4924632;29;20547;-81
2022/06/04 09:30:41;;;;;;;10.82;3.75;;;31.80;98.40;;;;;;4936318;29;20106;-82
2022/06/04 09:33:28;;;;;;;11.05;3.38;;;31.70;98.50;;;;;;4889230;29;20075;-81
2022/06/04 09:35:55;;;;;;;20.45;3.72;;;31.80;98.70;;;;;;4916346;29;20020;-82
2022/06/04 09:38:27;;;;;;;19.42;4.35;;;32.00;98.40;;;;;;4916377;29;20040;-83
2022/06/04 09:41:18;;;;;;;16.52;3.88;;;32.20;97.90;;;;;;4916877;29;20016;-83
2022/06/04 09:44:00;;;;;;;11.43;3.47;;;32.20;98.00;;;;;;4916196;29;20036;-83
2022/06/04 09:46:26;;;;;;;14.85;4.57;;;32.20;97.80;;;;;;4915991;29;20032;-82
2022/06/04 09:48:55;;;;;;;11.70;3.80;;;32.10;97.60;;;;;;4916328;29;20104;-83
2022/06/04 09:51:24;;;;;;;16.10;4.00;;;31.90;97.90;;;;;;4916586;29;20111;-82
2022/06/04 09:54:02;;;;;;;13.15;3.80;;;31.90;98.40;;;;;;4916597;29;20020;-82
2022/06/04 09:56:36;;;;;;;14.43;3.63;;;32.00;98.40;;;;;;4899161;29;20064;-81
2022/06/04 09:59:19;;;;;;;9.85;3.85;;;32.10;98.20;;;;;;4916619;29;20042;-82
2022/06/04 10:02:11;;;;;;;14.88;4.18;;;32.10;98.10;;;;;;4916208;29;20047;-83
2022/06/04 10:04:37;;;;;;;;;;;32.00;98.20;;;;;;4922579;29;20040;-81
2022/06/04 10:07:11;;;;;;;13.98;4.03;;;31.90;98.10;;;;;;4916229;29;19970;-83
2022/06/04 10:09:58;;;;;;;23.17;4.63;;;31.90;98.20;;;;;;4916143;29;20032;-82
2022/06/04 10:15:40;;;;;;;8.48;4.03;;;31.80;98.60;;;;;;4916319;29;20048;-82
2022/06/04 10:18:32;;;;;;;12.48;3.88;;;31.60;99.00;;;;;;4916418;29;20493;-83
2022/06/04 10:21:16;;;;;;;15.02;4.05;;;31.50;99.20;;;;;;4916208;29;20409;-83
2022/06/04 10:23:48;;;;;;;12.05;3.40;;;31.30;99.20;;;;;;4916494;29;20420;-82
2022/06/04 10:27:02;;;;;;;14.73;4.93;;;31.30;99.20;;;;;;4915684;29;20088;-83
2022/06/04 10:29:39;;;;;;;12.70;4.20;;;31.20;99.10;;;;;;4915487;29;20044;-83
2022/06/04 10:32:29;;;;;;;9.70;3.80;;;31.50;99.50;;;;;;4916418;29;20044;-83
2022/06/04 10:35:02;;;;;;;18.75;5.25;;;31.20;99.30;;;;;;4916171;29;20044;-82
2022/06/04 10:38:03;;;;;;;12.38;4.38;;;30.80;99.70;;;;;;4916101;29;20032;-82
2022/06/04 10:40:32;;;;;;;15.40;4.23;;;30.50;99.90;;;;;;4915943;29;20032;-82
2022/06/04 10:43:40;;;;;;;15.90;4.03;;;30.40;99.90;;;;;;4916021;29;20731;-83
2022/06/04 10:46:32;;;;;;;13.70;4.53;;;30.30;99.90;;;;;;4915727;29;20390;-82
2022/06/04 10:49:35;;;;;;;18.05;3.97;;;30.30;99.90;;;;;;4914903;29;20044;-82
2022/06/04 10:52:17;;;;;;;11.07;4.05;;;30.40;99.90;;;;;;4918651;29;20049;-82
2022/06/04 10:55:07;;;;;;;13.52;4.35;;;30.40;99.90;;;;;;4918763;29;20036;-83
2022/06/04 10:57:53;;;;;;;19.95;4.93;;;30.60;99.90;;;;;;4918462;29;20036;-84
2022/06/04 11:00:31;;;;;;;16.90;4.53;;;30.50;99.90;;;;;;4918835;29;20028;-82
2022/06/04 11:03:26;;;;;;;13.05;4.45;;;30.40;99.90;;;;;;4929568;29;20055;-83
2022/06/04 11:06:08;;;;;;;11.43;4.68;;;30.30;99.90;;;;;;4904902;29;20024;-83
2022/06/04 11:09:06;;;;;;;18.77;5.28;;;30.30;99.90;;;;;;4917958;29;20032;-82
2022/06/04 11:11:40;;;;;;;9.57;4.30;;;30.30;99.90;;;;;;4916936;29;20055;-82
2022/06/04 11:14:23;;;;;;;17.98;5.50;;;30.10;99.90;;;;;;4918538;29;20051;-83
2022/06/04 11:17:00;;;;;;;19.45;5.60;;;30.00;99.90;;;;;;4918104;29;20036;-83
2022/06/04 11:19:54;;;;;;;19.80;5.07;;;29.80;99.90;;;;;;4918250;29;20111;-83
2022/06/04 11:22:36;;;;;;;18.35;4.93;;;29.70;99.90;;;;;;4918668;29;20033;-83
2022/06/04 11:25:26;;;;;;;14.65;4.75;;;29.80;99.90;;;;;;4918576;29;20039;-82
2022/06/04 11:28:07;;;;;;;20.33;4.57;;;29.80;99.90;;;;;;4917876;29;20048;-83
2022/06/04 11:31:01;;;;;;;24.70;5.10;;;29.90;99.90;;;;;;4918248;29;20135;-83
2022/06/04 11:34:04;;;;;;;20.30;5.05;;;29.90;99.90;;;;;;4921680;29;20339;-84
2022/06/04 11:36:45;;;;;;;14.73;5.32;;;29.90;99.90;;;;;;4926467;29;20058;-82
2022/06/04 11:40:13;;;;;;;15.37;4.47;;;29.70;99.90;;;;;;4917984;29;20040;-83
2022/06/04 11:42:27;;;;;;;21.77;4.97;;;29.60;99.90;;;;;;4913994;29;20036;-81
2022/06/04 11:45:19;;;;;;;14.60;5.65;;;29.60;99.90;;;;;;4917293;29;20036;-82
2022/06/04 11:47:49;;;;;;;14.38;4.85;;;29.60;99.90;;;;;;4917855;29;20125;-83
2022/06/04 11:50:45;;;;;;;11.18;4.60;;;29.50;99.90;;;;;;4917139;29;20095;-83
2022/06/04 11:53:49;;;;;;;13.73;5.88;;;29.60;99.90;;;;;;4917566;29;20099;-83
2022/06/04 11:57:03;;;;;;;11.52;5.95;;;29.50;99.90;;;;;;4917132;29;20079;-83
2022/06/04 11:59:37;;;;;;;18.95;5.55;;;29.50;99.90;;;;;;4900896;29;20044;-83
2022/06/04 12:02:38;;;;;;;19.17;6.32;;;29.50;99.90;;;;;;4915880;29;20043;-83
2022/06/04 12:05:34;;;;;;;16.15;6.45;;;29.40;99.90;;;;;;4917737;29;20088;-82
2022/06/04 12:08:12;;;;;;;19.17;5.75;;;29.40;99.90;;;;;;4917171;29;20047;-81
2022/06/04 12:10:53;;;;;;;10.52;5.28;;;29.30;99.90;;;;;;4917427;29;20121;-82
2022/06/04 12:13:57;;;;;;;14.33;6.23;;;29.30;99.90;;;;;;4917249;29;20037;-82
2022/06/04 12:16:31;;;;;;;15.50;5.18;;;29.50;99.90;;;;;;4917281;29;20284;-82
2022/06/04 12:19:04;;;;;;;13.65;6.00;;;29.50;99.90;;;;;;4917049;29;20036;-81
2022/06/04 12:24:41;;;;;;;19.40;5.88;;;29.50;99.90;;;;;;4917187;29;20068;-83
2022/06/04 12:27:16;;;;;;;20.73;6.78;;;29.30;99.90;;;;;;4917023;29;20044;-83
2022/06/04 12:29:53;;;;;;;20.98;7.10;;;29.30;99.90;;;;;;4916990;29;20043;-82
2022/06/04 12:32:34;;;;;;;20.15;6.07;;;29.10;99.90;;;;;;4916429;29;20036;-82
2022/06/04 12:35:11;;;;;;;18.25;6.82;;;29.10;99.90;;;;;;4916466;29;20118;-82
2022/06/04 12:37:41;;;;;;;19.58;6.43;;;29.10;99.90;;;;;;4916414;29;20036;-82
2022/06/04 12:40:19;;;;;;;14.93;6.40;;;29.20;99.90;;;;;;4899790;29;20043;-82
2022/06/04 12:43:33;;;;;;;12.07;7.40;;;29.20;99.90;;;;;;4916542;29;20091;-82
2022/06/04 12:49:38;;;;;;;11.50;6.20;;;29.20;99.90;;;;;;4914367;29;20036;-82
2022/06/04 12:52:32;;;;;;;17.17;6.80;;;29.30;99.90;;;;;;4915195;29;20044;-82
2022/06/04 12:55:37;;;;;;;12.52;5.55;;;29.40;99.90;;;;;;4916423;29;20119;-82
2022/06/04 12:58:25;;;;;;;14.15;5.97;;;29.60;99.90;;;;;;4916382;29;20067;-82
2022/06/04 13:01:03;;;;;;;12.95;6.30;;;29.50;99.90;;;;;;4916299;29;20039;-82
2022/06/04 13:03:40;;;;;;;20.13;7.70;;;29.50;99.90;;;;;;4915967;29;20086;-82
2022/06/04 13:06:12;;;;;;;21.85;8.52;;;29.50;99.90;;;;;;4899175;29;20036;-84
2022/06/04 13:08:53;;;;;;;17.25;7.28;;;29.30;99.90;;;;;;4916726;29;20032;-82
2022/06/04 13:11:45;;;;;;;15.20;7.53;;;29.20;99.90;;;;;;4916376;29;20442;-82
2022/06/04 13:14:40;;;;;;;23.15;12.27;;;29.20;99.90;;;;;;4916143;29;20058;-83
2022/06/04 13:17:15;;;;;;;31.05;16.15;;;29.00;99.90;;;;;;4903406;29;20040;-82
2022/06/04 13:19:44;;;;;;;28.20;13.73;;;29.00;99.90;;;;;;4915872;29;20096;-82
2022/06/04 13:22:34;;;;;;;31.52;12.98;;;28.90;99.90;;;;;;4916284;29;20040;-83
2022/06/04 13:25:05;;;;;;;19.30;9.82;;;28.90;99.90;;;;;;4907788;29;20038;-83
2022/06/04 13:27:53;;;;;;;23.30;8.02;;;29.00;99.90;;;;;;4915539;29;20051;-82
2022/06/04 13:30:27;;;;;;;22.60;10.27;;;29.00;99.90;;;;;;4915875;29;20505;-83
2022/06/04 13:33:11;;;;;;;21.52;7.93;;;29.00;99.90;;;;;;4915695;29;20039;-82
2022/06/04 13:35:47;;;;;;;22.02;7.50;;;29.10;99.90;;;;;;4915644;29;20047;-82
2022/06/04 13:38:39;;;;;;;25.55;6.80;;;29.20;99.90;;;;;;4916099;29;20071;-83
2022/06/04 13:41:16;;;;;;;;;;;29.30;99.90;;;;;;4916287;29;20044;-82
2022/06/04 13:43:46;;;;;;;12.27;6.28;;;29.40;99.90;;;;;;4916013;29;19949;-82
2022/06/04 13:46:23;;;;;;;20.45;6.95;;;29.40;99.90;;;;;;4915772;29;20093;-83
2022/06/04 13:49:13;;;;;;;16.73;6.65;;;29.30;99.90;;;;;;4915423;29;20040;-83
2022/06/04 13:51:45;;;;;;;31.20;8.52;;;29.20;99.90;;;;;;4915846;29;20122;-82
2022/06/04 13:54:29;;;;;;;19.88;6.57;;;29.10;99.90;;;;;;4917225;29;20108;-83
2022/06/04 13:56:58;;;;;;;17.02;7.75;;;29.00;99.90;;;;;;4916346;29;20039;-83
2022/06/04 13:59:33;;;;;;;16.23;7.47;;;28.90;99.90;;;;;;4917064;29;20036;-82
2022/06/04 14:02:13;;;;;;;13.35;7.63;;;28.80;99.90;;;;;;4916992;29;20040;-83
2022/06/04 14:07:34;;;;;;;22.38;7.70;;;28.60;99.90;;;;;;4916822;29;20051;-83
2022/06/04 14:10:00;;;;;;;15.65;6.45;;;28.60;99.90;;;;;;4915921;29;20066;-82
2022/06/04 14:12:44;;;;;;;14.50;6.47;;;28.60;99.90;;;;;;4914579;29;20482;-83
2022/06/04 14:15:13;;;;;;;14.55;6.13;;;28.70;99.90;;;;;;4915664;29;20028;-83
2022/06/04 14:18:23;;;;;;;13.07;5.60;;;28.80;99.90;;;;;;4915626;29;20044;-83
2022/06/04 14:21:19;;;;;;;13.43;7.07;;;28.80;99.90;;;;;;4915304;29;20393;-82
2022/06/04 14:23:58;;;;;;;24.08;5.75;;;28.80;99.90;;;;;;4915120;29;20044;-82
2022/06/04 14:27:01;;;;;;;13.50;6.50;;;28.70;99.90;;;;;;4918929;29;20127;-83
2022/06/04 14:29:55;;;;;;;12.93;5.30;;;28.80;99.90;;;;;;4915670;29;20084;-82
2022/06/04 14:32:40;;;;;;;10.93;5.32;;;28.90;99.90;;;;;;4920790;29;20043;-81
2022/06/04 14:35:32;;;;;;;11.95;5.53;;;28.90;99.90;;;;;;4936576;29;20035;-82
2022/06/04 14:38:12;;;;;;;26.25;5.40;;;28.90;99.90;;;;;;4900124;29;20041;-82
2022/06/04 14:40:58;;;;;;;14.90;5.43;;;28.90;99.90;;;;;;4909909;29;20032;-83
2022/06/04 14:43:39;;;;;;;16.73;5.28;;;29.00;99.90;;;;;;4919835;29;20422;-83
2022/06/04 14:46:42;;;;;;;13.65;4.95;;;29.10;99.90;;;;;;4919108;29;20039;-82
2022/06/04 14:49:27;;;;;;;19.55;5.60;;;29.00;99.90;;;;;;4920772;29;20036;-82
2022/06/04 14:52:11;;;;;;;11.70;5.43;;;29.00;99.90;;;;;;4937870;29;20046;-83
2022/06/04 14:54:38;;;;;;;16.08;5.50;;;28.90;99.90;;;;;;4937856;29;20032;-82
2022/06/04 14:57:22;;;;;;;13.95;5.82;;;28.70;99.90;;;;;;4937855;29;20054;-81
2022/06/04 14:59:59;;;;;;;10.05;5.80;;;28.60;99.90;;;;;;4937475;29;20261;-82
2022/06/04 15:02:50;;;;;;;13.98;5.72;;;28.70;99.90;;;;;;4937744;29;20066;-80
2022/06/04 15:05:31;;;;;;;21.40;6.22;;;28.70;99.90;;;;;;4937422;29;20091;-84
2022/06/04 15:08:11;;;;;;;14.38;6.53;;;28.70;99.90;;;;;;4937881;29;20131;-84
2022/06/04 15:11:01;;;;;;;15.05;5.90;;;28.70;99.90;;;;;;4926431;29;20519;-82
2022/06/04 15:13:57;;;;;;;12.98;6.38;;;28.60;99.90;;;;;;4917584;29;20485;-82
2022/06/04 15:16:58;;;;;;;18.25;6.10;;;28.50;99.90;;;;;;4918486;29;20060;-82
2022/06/04 15:20:06;;;;;;;21.77;6.53;;;28.60;99.90;;;;;;4886734;29;20525;-82
2022/06/04 15:23:00;;;;;;;15.65;6.18;;;28.50;99.90;;;;;;4917793;29;20044;-82
2022/06/04 15:25:55;;;;;;;18.30;7.30;;;28.60;99.90;;;;;;4895595;29;20076;-82
2022/06/04 15:34:26;;;;;;;9.98;6.00;;;28.50;99.90;;;;;;4918111;29;20393;-82
2022/06/04 15:37:02;;;;;;;18.52;7.60;;;28.50;99.90;;;;;;4917837;29;20541;-81
2022/06/04 15:39:38;;;;;;;24.75;7.65;;;28.50;99.90;;;;;;4917740;29;20058;-81
2022/06/04 15:42:22;;;;;;;22.60;7.60;;;28.30;99.90;;;;;;4917653;29;20493;-82
2022/06/04 15:45:40;;;;;;;16.15;7.47;;;28.30;99.90;;;;;;4918216;29;20040;-82
2022/06/04 15:48:12;;;;;;;16.48;7.63;;;28.30;99.90;;;;;;4901790;29;20084;-84
2022/06/04 15:56:34;;;;;;;17.00;8.23;;;28.30;99.90;;;;;;4918334;29;20043;-82
2022/06/04 16:00:04;;;;;;;22.17;7.00;;;28.30;99.90;;;;;;4917192;29;20485;-83
2022/06/04 16:02:35;;;;;;;17.38;8.15;;;28.20;99.90;;;;;;4875559;29;20037;-83
2022/06/04 16:05:05;;;;;;;21.70;7.78;;;28.20;99.90;;;;;;4877510;29;20451;-83
2022/06/04 16:07:49;;;;;;;13.93;7.72;;;28.20;99.90;;;;;;4900606;29;20453;-83
2022/06/04 16:10:28;;;;;;;20.35;7.72;;;28.20;99.90;;;;;;4907678;29;20037;-83
2022/06/04 16:13:14;;;;;;;13.48;6.55;;;28.20;99.90;;;;;;4924777;29;20031;-82
2022/06/04 16:16:09;;;;;;;11.57;6.30;;;28.20;99.90;;;;;;4929369;29;20039;-82
2022/06/04 16:18:53;;;;;;;12.15;6.68;;;28.10;99.90;;;;;;4935890;29;20393;-81
2022/06/04 16:21:44;;;;;;;16.05;7.15;;;28.10;99.90;;;;;;4925026;29;20127;-82
2022/06/04 16:24:20;;;;;;;11.93;7.18;;;28.10;99.90;;;;;;4922800;29;20701;-81
2022/06/04 16:26:54;;;;;;;15.15;7.10;;;27.90;99.90;;;;;;4924966;29;20067;-82
2022/06/04 16:29:32;;;;;;;15.80;7.22;;;27.80;99.90;;;;;;4925537;29;20409;-82
2022/06/04 16:32:20;;;;;;;15.80;7.07;;;27.70;99.90;;;;;;4899615;29;20123;-82
2022/06/04 16:35:03;;;;;;;14.02;7.25;;;27.70;99.90;;;;;;4919562;29;20446;-82
2022/06/04 16:37:39;;;;;;;13.23;7.93;;;27.60;99.90;;;;;;4924314;29;20043;-82
2022/06/04 16:40:09;;;;;;;17.60;8.57;;;27.60;99.90;;;;;;4914006;29;20051;-82
2022/06/04 16:42:51;;;;;;;12.50;8.50;;;27.60;99.90;;;;;;4916184;29;20068;-82
2022/06/04 16:45:23;;;;;;;18.00;7.95;;;27.50;99.90;;;;;;4922916;29;20036;-81
2022/06/04 16:47:55;;;;;;;16.88;8.30;;;27.50;99.90;;;;;;4926369;29;20020;-83
2022/06/04 16:50:24;;;;;;;21.38;7.28;;;27.40;99.90;;;;;;4925882;29;20092;-82
2022/06/04 16:52:54;;;;;;;24.85;7.28;;;27.40;99.90;;;;;;4920092;29;20036;-82
2022/06/04 16:55:26;;;;;;;17.38;6.55;;;27.50;99.90;;;;;;4931200;29;20035;-83
2022/06/04 16:57:57;;;;;;;23.55;7.22;;;27.40;99.90;;;;;;4897801;29;20040;-82
2022/06/04 17:00:34;;;;;;;16.15;6.53;;;27.30;99.90;;;;;;4897591;29;20037;-82
2022/06/04 17:03:36;;;;;;;17.42;6.10;;;27.30;99.90;;;;;;4931352;29;20031;-82
2022/06/04 17:06:10;;;;;;;14.00;6.07;;;27.30;99.90;;;;;;4929667;29;20424;-83
2022/06/04 17:08:54;;;;;;;16.58;5.88;;;27.20;99.90;;;;;;4924120;29;20035;-82
2022/06/04 17:11:39;;;;;;;20.52;6.88;;;27.20;99.90;;;;;;4917704;29;20052;-82
2022/06/04 17:14:16;;;;;;;13.32;6.45;;;27.10;99.90;;;;;;4927241;29;20036;-83
2022/06/04 17:17:09;;;;;;;10.57;6.40;;;27.20;99.90;;;;;;4923872;29;20030;-83
2022/06/04 17:19:56;;;;;;;14.77;6.80;;;27.20;99.90;;;;;;4920855;29;20079;-82
2022/06/04 17:22:59;;;;;;;14.15;6.47;;;27.20;99.90;;;;;;4926453;29;20115;-83
2022/06/04 17:25:49;;;;;;;18.92;7.07;;;27.10;99.90;;;;;;4923814;29;20492;-82
2022/06/04 17:28:33;;;;;;;16.55;6.10;;;27.00;99.90;;;;;;4915694;29;20040;-82
2022/06/04 17:31:10;;;;;;;16.58;6.00;;;26.90;99.90;;;;;;4920899;29;20047;-83
2022/06/04 17:33:59;;;;;;;16.65;5.75;;;26.90;99.90;;;;;;4921914;29;20097;-83